Time;durP1;ratioP1;P1;durP2;ratioP2;P2;SDS_P1;SDS_P2;PMS_P1;PMS_P2;Temp;Humidity;BMP_temperature;BMP_pressure;BME280_temperature;BME280_humidity;BME280_pressure;Samples;Min_cycle;Max_cycle;Signal;HPM_P1;HPM_P2
2023/10/01 00:01:20;;;;;;;18.67;9.63;;;11.10;99.90;;;;;;4942350;29;20027;-85
2023/10/01 00:03:45;;;;;;;20.98;9.55;;;11.10;99.90;;;;;;4941708;29;20115;-85
2023/10/01 00:06:11;;;;;;;22.88;10.88;;;11.10;99.90;;;;;;4943896;28;20820;-85
2023/10/01 00:08:36;;;;;;;22.42;10.57;;;11.10;99.90;;;;;;4942516;29;20034;-85
2023/10/01 00:11:03;;;;;;;19.52;10.15;;;11.10;99.90;;;;;;4942756;29;20027;-85
2023/10/01 00:13:28;;;;;;;22.35;9.77;;;11.10;99.90;;;;;;4944226;29;20552;-85
2023/10/01 00:15:55;;;;;;;21.35;9.82;;;11.10;99.90;;;;;;4944209;29;20027;-85
2023/10/01 00:18:21;;;;;;;22.88;10.00;;;11.00;99.90;;;;;;4945459;29;20039;-85
2023/10/01 00:20:46;;;;;;;20.98;9.85;;;11.00;99.90;;;;;;4946445;29;20019;-85
2023/10/01 00:23:12;;;;;;;21.65;10.10;;;10.90;99.90;;;;;;4948101;29;20082;-85
2023/10/01 00:25:38;;;;;;;26.13;10.80;;;11.00;99.90;;;;;;4947263;28;20066;-85
2023/10/01 00:28:06;;;;;;;22.35;9.93;;;10.90;99.90;;;;;;4952193;29;20122;-85
2023/10/01 00:30:31;;;;;;;17.08;9.90;;;10.80;99.90;;;;;;4927297;29;20043;-85
2023/10/01 00:32:58;;;;;;;22.77;9.48;;;10.80;99.90;;;;;;4944588;29;20036;-85
2023/10/01 00:35:25;;;;;;;20.67;9.32;;;10.80;99.90;;;;;;4945115;28;20035;-85
2023/10/01 00:37:52;;;;;;;20.30;9.15;;;10.80;99.90;;;;;;4950010;29;20046;-85
2023/10/01 00:40:18;;;;;;;20.55;9.73;;;10.70;99.90;;;;;;4948301;29;20121;-85
2023/10/01 00:42:44;;;;;;;17.17;9.57;;;10.70;99.90;;;;;;4949804;29;20121;-85
2023/10/01 00:45:11;;;;;;;20.48;9.95;;;10.60;99.90;;;;;;4951341;29;20027;-84
2023/10/01 00:47:41;;;;;;;19.48;9.18;;;10.60;99.90;;;;;;4955094;29;20041;-85
2023/10/01 00:50:11;;;;;;;18.13;9.50;;;10.60;99.90;;;;;;4957612;29;20043;-85
2023/10/01 00:52:37;;;;;;;19.40;9.52;;;10.60;99.90;;;;;;4955984;29;20071;-85
2023/10/01 00:55:05;;;;;;;23.08;9.40;;;10.50;99.90;;;;;;4928769;29;20039;-85
2023/10/01 00:57:30;;;;;;;19.98;9.85;;;10.50;99.90;;;;;;4945361;29;20031;-86
2023/10/01 00:59:56;;;;;;;18.67;9.60;;;10.50;99.90;;;;;;4944678;29;20050;-84
2023/10/01 01:02:22;;;;;;;16.80;9.15;;;10.50;99.90;;;;;;4946865;29;20042;-85
2023/10/01 01:05:05;;;;;;;18.92;9.27;;;10.50;99.90;;;;;;4945753;28;20027;-85
2023/10/01 01:07:32;;;;;;;20.13;9.38;;;10.50;99.90;;;;;;4945324;29;20038;-85
2023/10/01 01:10:01;;;;;;;18.80;9.05;;;10.40;99.90;;;;;;4945847;29;20027;-84
2023/10/01 01:12:27;;;;;;;20.15;8.82;;;10.40;99.90;;;;;;4946296;29;20045;-85
2023/10/01 01:14:54;;;;;;;18.80;9.98;;;10.40;99.90;;;;;;4944412;28;20030;-85
2023/10/01 01:17:21;;;;;;;19.50;9.07;;;10.40;99.90;;;;;;4946089;29;20075;-85
2023/10/01 01:19:52;;;;;;;17.05;8.35;;;10.30;99.90;;;;;;4946779;29;20081;-85
2023/10/01 01:22:28;;;;;;;18.33;8.60;;;10.30;99.90;;;;;;4945567;29;20066;-85
2023/10/01 01:24:57;;;;;;;17.90;9.02;;;10.30;99.90;;;;;;4954092;28;20098;-85
2023/10/01 01:27:23;;;;;;;19.30;9.07;;;10.20;99.90;;;;;;4956409;29;20062;-84
2023/10/01 01:29:50;;;;;;;18.95;9.55;;;10.20;99.90;;;;;;4950913;29;20043;-85
2023/10/01 01:32:19;;;;;;;18.83;9.43;;;10.20;99.90;;;;;;4944010;29;20119;-85
2023/10/01 01:34:45;;;;;;;18.98;9.32;;;10.20;99.90;;;;;;4944771;29;20715;-84
2023/10/01 01:37:30;;;;;;;17.48;8.55;;;10.20;99.90;;;;;;4945586;29;20043;-85
2023/10/01 01:39:57;;;;;;;20.30;9.95;;;10.20;99.90;;;;;;4944008;29;20733;-85
2023/10/01 01:42:24;;;;;;;18.23;8.63;;;10.20;99.90;;;;;;4945808;29;20035;-85
2023/10/01 01:47:38;;;;;;;17.83;9.02;;;10.10;99.90;;;;;;4943205;29;20038;-85
2023/10/01 01:52:51;;;;;;;20.00;9.32;;;10.10;99.90;;;;;;4945419;29;20219;-85
2023/10/01 01:55:25;;;;;;;20.13;9.00;;;10.10;99.90;;;;;;4941633;28;20097;-85
2023/10/01 02:00:37;;;;;;;21.50;9.02;;;10.00;99.90;;;;;;4945911;29;20111;-84
2023/10/01 02:03:10;;;;;;;18.20;8.80;;;10.00;99.90;;;;;;4943936;29;20485;-84
2023/10/01 02:05:41;;;;;;;19.92;9.63;;;10.00;99.90;;;;;;4944461;28;20625;-85
2023/10/01 02:08:23;;;;;;;20.13;10.15;;;10.00;99.90;;;;;;4945692;29;20027;-84
2023/10/01 02:10:53;;;;;;;20.55;9.02;;;10.00;99.90;;;;;;4943800;29;20049;-84
2023/10/01 02:13:18;;;;;;;20.30;9.52;;;10.00;99.90;;;;;;4944612;29;20039;-85
2023/10/01 02:15:47;;;;;;;20.88;9.23;;;10.00;99.90;;;;;;4943962;28;20035;-84
2023/10/01 02:18:20;;;;;;;17.45;7.90;;;9.90;99.90;;;;;;4944557;29;20510;-84
2023/10/01 02:20:56;;;;;;;17.38;8.07;;;9.90;99.90;;;;;;4943775;29;20023;-84
2023/10/01 02:23:33;;;;;;;17.83;8.50;;;9.90;99.90;;;;;;4944679;29;20120;-85
2023/10/01 02:26:00;;;;;;;18.00;8.90;;;9.90;99.90;;;;;;4926852;29;20035;-85
2023/10/01 02:28:26;;;;;;;20.33;8.88;;;9.90;99.90;;;;;;4943394;29;20054;-85
2023/10/01 02:31:00;;;;;;;17.27;7.80;;;9.80;99.90;;;;;;4945393;29;20697;-85
2023/10/01 02:33:54;;;;;;;21.30;8.52;;;9.80;99.90;;;;;;4945812;29;20118;-84
2023/10/01 02:36:22;;;;;;;18.65;8.32;;;9.80;99.90;;;;;;4943453;29;21026;-84
2023/10/01 02:38:53;;;;;;;17.80;8.18;;;9.80;99.90;;;;;;4945122;29;21429;-85
2023/10/01 02:41:25;;;;;;;19.60;8.23;;;9.70;99.90;;;;;;4945083;29;20027;-85
2023/10/01 02:43:53;;;;;;;16.83;7.97;;;9.70;99.90;;;;;;4944185;29;20514;-85
2023/10/01 02:46:26;;;;;;;16.52;8.23;;;9.70;99.90;;;;;;4944779;28;20082;-85
2023/10/01 02:48:55;;;;;;;21.30;9.02;;;9.70;99.90;;;;;;4945389;29;20028;-84
2023/10/01 02:51:32;;;;;;;16.88;8.27;;;9.60;99.90;;;;;;4944567;29;20035;-85
2023/10/01 02:54:03;;;;;;;20.58;7.82;;;9.60;99.90;;;;;;4945894;29;20126;-84
2023/10/01 02:56:52;;;;;;;16.47;8.43;;;9.60;99.90;;;;;;4943938;28;20039;-84
2023/10/01 02:59:19;;;;;;;16.10;7.93;;;9.50;99.90;;;;;;4944464;29;20613;-85
2023/10/01 03:01:49;;;;;;;17.88;8.65;;;9.50;99.90;;;;;;4944757;29;20052;-84
2023/10/01 03:04:16;;;;;;;18.23;8.67;;;9.50;99.90;;;;;;4946269;29;20118;-85
2023/10/01 03:06:55;;;;;;;14.73;7.87;;;9.50;99.90;;;;;;4946619;28;20123;-84
2023/10/01 03:09:39;;;;;;;19.90;7.93;;;9.50;99.90;;;;;;4944505;29;20035;-84
2023/10/01 03:12:24;;;;;;;16.70;8.40;;;9.50;99.90;;;;;;4945523;29;20400;-84
2023/10/01 03:17:38;;;;;;;18.07;8.30;;;9.40;99.90;;;;;;4945843;29;20049;-84
2023/10/01 03:22:53;;;;;;;15.38;8.38;;;9.40;99.90;;;;;;4945745;29;20042;-85
2023/10/01 03:25:19;;;;;;;16.47;8.57;;;9.40;99.90;;;;;;4944151;29;20035;-84
2023/10/01 03:27:45;;;;;;;15.13;8.07;;;9.30;99.90;;;;;;4946062;29;20027;-84
2023/10/01 03:30:21;;;;;;;16.40;8.10;;;9.30;99.90;;;;;;4930000;29;20228;-84
2023/10/01 03:32:47;;;;;;;15.70;7.83;;;9.30;99.90;;;;;;4946687;29;20031;-84
2023/10/01 03:35:12;;;;;;;16.73;8.13;;;9.20;99.90;;;;;;4944890;28;20027;-84
2023/10/01 03:37:38;;;;;;;18.20;8.17;;;9.30;99.90;;;;;;4949249;29;20032;-85
2023/10/01 03:40:18;;;;;;;17.23;8.63;;;9.30;99.90;;;;;;4946574;29;20039;-84
2023/10/01 03:42:51;;;;;;;19.00;8.20;;;9.20;99.90;;;;;;4953241;29;20043;-83
2023/10/01 03:45:55;;;;;;;15.43;7.40;;;9.30;99.90;;;;;;4961657;29;20093;-84
2023/10/01 03:48:19;;;;;;;15.50;8.33;;;9.20;99.90;;;;;;4962834;29;20043;-84
2023/10/01 03:50:47;;;;;;;16.17;8.07;;;9.20;99.90;;;;;;4949111;29;20031;-85
2023/10/01 03:53:17;;;;;;;16.53;7.77;;;9.20;99.90;;;;;;4944305;29;20171;-84
2023/10/01 03:55:46;;;;;;;20.63;8.63;;;9.20;99.90;;;;;;4939761;28;20125;-84
2023/10/01 03:58:18;;;;;;;19.07;8.53;;;9.20;99.90;;;;;;4941640;29;20039;-84
2023/10/01 04:00:53;;;;;;;20.63;8.57;;;9.20;99.90;;;;;;4943659;29;20063;-84
2023/10/01 04:03:21;;;;;;;19.83;8.75;;;9.20;99.90;;;;;;4942366;29;20043;-85
2023/10/01 04:05:47;;;;;;;16.87;8.80;;;9.20;99.90;;;;;;4941713;28;20066;-84
2023/10/01 04:08:16;;;;;;;16.93;8.50;;;9.20;99.90;;;;;;4943629;29;20086;-84
2023/10/01 04:10:47;;;;;;;17.53;8.10;;;9.20;99.90;;;;;;4943559;28;20114;-84
2023/10/01 04:13:13;;;;;;;18.47;8.80;;;9.20;99.90;;;;;;4941878;29;20481;-84
2023/10/01 04:15:46;;;;;;;19.20;8.57;;;9.20;99.90;;;;;;4941577;29;21414;-84
2023/10/01 04:23:29;;;;;;;16.60;8.63;;;9.20;99.90;;;;;;4942366;29;20162;-84
2023/10/01 04:26:04;;;;;;;19.73;8.77;;;9.20;99.90;;;;;;4940954;28;20090;-84
2023/10/01 04:28:31;;;;;;;17.00;8.55;;;9.20;99.90;;;;;;4941704;29;20126;-84
2023/10/01 04:30:56;;;;;;;17.80;8.53;;;9.20;99.90;;;;;;4941856;29;20055;-84
2023/10/01 04:33:25;;;;;;;17.70;8.40;;;9.20;99.90;;;;;;4943549;29;20993;-84
2023/10/01 04:35:51;;;;;;;19.90;8.83;;;9.20;99.90;;;;;;4940811;28;20568;-84
2023/10/01 04:38:21;;;;;;;16.90;8.90;;;9.20;99.90;;;;;;4941660;29;20031;-84
2023/10/01 04:40:50;;;;;;;16.60;8.70;;;9.20;99.90;;;;;;4943444;29;20023;-84
2023/10/01 04:43:16;;;;;;;16.90;9.10;;;9.10;99.90;;;;;;4942243;29;20082;-84
2023/10/01 04:45:44;;;;;;;19.50;8.27;;;9.10;99.90;;;;;;4941456;29;20027;-84
2023/10/01 04:48:22;;;;;;;19.80;9.00;;;9.20;99.90;;;;;;4942186;29;20142;-84
2023/10/01 04:50:53;;;;;;;13.20;7.60;;;9.20;99.90;;;;;;4942279;29;20824;-84
2023/10/01 04:53:20;;;;;;;15.40;8.27;;;9.20;99.90;;;;;;4923836;29;20115;-84
2023/10/01 04:55:58;;;;;;;18.77;9.23;;;9.10;99.90;;;;;;4937746;28;20031;-84
2023/10/01 04:58:24;;;;;;;16.97;8.13;;;9.20;99.90;;;;;;4941854;29;20619;-84
2023/10/01 05:00:50;;;;;;;17.77;8.63;;;9.10;99.90;;;;;;4940669;29;21005;-84
2023/10/01 05:03:16;;;;;;;20.43;8.17;;;9.10;99.90;;;;;;4941357;29;20055;-84
2023/10/01 05:05:48;;;;;;;19.07;8.20;;;9.10;99.90;;;;;;4942257;29;20050;-83
2023/10/01 05:08:14;;;;;;;18.20;8.43;;;9.10;99.90;;;;;;4942245;29;20066;-84
2023/10/01 05:10:51;;;;;;;14.80;8.17;;;9.10;99.90;;;;;;4940981;29;20023;-83
2023/10/01 05:13:22;;;;;;;16.57;7.80;;;9.00;99.90;;;;;;4942630;29;20049;-84
2023/10/01 05:15:49;;;;;;;14.53;8.00;;;9.00;99.90;;;;;;4941939;29;20027;-84
2023/10/01 05:18:17;;;;;;;15.87;7.87;;;9.00;99.90;;;;;;4950056;29;20062;-84
2023/10/01 05:20:42;;;;;;;18.23;8.80;;;8.90;99.90;;;;;;4954950;28;20031;-84
2023/10/01 05:23:08;;;;;;;17.70;8.50;;;8.90;99.90;;;;;;4954296;29;20027;-84
2023/10/01 05:25:33;;;;;;;19.90;9.47;;;8.90;99.90;;;;;;4944648;29;20027;-83
2023/10/01 05:28:00;;;;;;;15.43;8.53;;;8.90;99.90;;;;;;4946274;29;20137;-84
2023/10/01 05:30:32;;;;;;;17.93;9.10;;;8.90;99.90;;;;;;4945785;29;20142;-84
2023/10/01 05:32:58;;;;;;;16.43;8.40;;;9.00;99.90;;;;;;4944594;29;20526;-84
2023/10/01 05:35:24;;;;;;;18.50;9.07;;;9.00;99.90;;;;;;4943700;29;20019;-84
2023/10/01 05:37:50;;;;;;;19.47;8.70;;;9.00;99.90;;;;;;4945016;29;20035;-84
2023/10/01 05:40:16;;;;;;;17.77;8.93;;;9.00;99.90;;;;;;4944109;29;20517;-84
2023/10/01 05:42:44;;;;;;;18.73;9.03;;;9.00;99.90;;;;;;4943235;29;20027;-84
2023/10/01 05:45:18;;;;;;;18.03;8.83;;;9.00;99.90;;;;;;4944858;28;20478;-84
2023/10/01 05:47:54;;;;;;;18.87;8.83;;;9.10;99.90;;;;;;4945793;29;20490;-84
2023/10/01 05:50:22;;;;;;;17.53;8.23;;;9.10;99.90;;;;;;4944348;29;20067;-84
2023/10/01 05:52:50;;;;;;;16.07;7.97;;;9.10;99.90;;;;;;4945631;29;20055;-84
2023/10/01 05:55:16;;;;;;;15.67;8.13;;;9.20;99.90;;;;;;4943898;28;21371;-83
2023/10/01 05:57:42;;;;;;;15.67;8.57;;;9.20;99.90;;;;;;4944681;29;20043;-84
2023/10/01 06:00:24;;;;;;;19.87;8.60;;;9.30;99.90;;;;;;4944979;29;20678;-84
2023/10/01 06:03:00;;;;;;;18.50;8.97;;;9.30;99.90;;;;;;4942155;29;20039;-84
2023/10/01 06:05:33;;;;;;;20.00;8.67;;;9.30;99.90;;;;;;4938960;28;20534;-84
2023/10/01 06:08:12;;;;;;;17.33;8.73;;;9.40;99.90;;;;;;4939722;29;21471;-84
2023/10/01 06:11:04;;;;;;;19.47;9.63;;;9.40;99.90;;;;;;4940600;29;20028;-84
2023/10/01 06:13:30;;;;;;;17.33;8.07;;;9.50;99.90;;;;;;4939847;29;20933;-85
2023/10/01 06:15:57;;;;;;;18.93;8.40;;;9.60;99.90;;;;;;4939731;28;20035;-84
2023/10/01 06:18:24;;;;;;;20.60;8.85;;;9.60;99.90;;;;;;4941769;29;20043;-84
2023/10/01 06:20:50;;;;;;;17.17;8.02;;;9.70;99.90;;;;;;4944174;29;20070;-84
2023/10/01 06:23:17;;;;;;;18.20;7.95;;;9.80;99.90;;;;;;4943429;29;20219;-84
2023/10/01 06:25:44;;;;;;;18.33;8.27;;;9.80;99.90;;;;;;4944268;28;20031;-83
2023/10/01 06:28:10;;;;;;;16.60;8.48;;;9.90;99.90;;;;;;4944756;29;20035;-84
2023/10/01 06:30:43;;;;;;;18.17;8.80;;;10.00;99.90;;;;;;4943626;29;20031;-83
2023/10/01 06:33:24;;;;;;;19.65;9.45;;;10.10;99.90;;;;;;4943510;28;20047;-84
2023/10/01 06:36:15;;;;;;;24.27;9.45;;;10.10;99.90;;;;;;4944934;28;21170;-84
2023/10/01 06:38:37;;;;;;;19.95;9.30;;;10.20;99.90;;;;;;4947708;29;20062;-84
2023/10/01 06:41:06;;;;;;;19.02;9.15;;;10.30;99.90;;;;;;4951602;29;20073;-84
2023/10/01 06:43:32;;;;;;;15.60;9.00;;;10.40;99.90;;;;;;4956873;29;20035;-85
2023/10/01 06:45:59;;;;;;;17.88;9.30;;;10.50;99.90;;;;;;4958450;29;20035;-84
2023/10/01 06:48:27;;;;;;;21.67;9.85;;;10.60;99.90;;;;;;4947142;29;20039;-84
2023/10/01 06:50:53;;;;;;;18.08;9.05;;;10.70;99.90;;;;;;4945277;29;20035;-83
2023/10/01 06:53:20;;;;;;;23.40;10.32;;;10.80;99.90;;;;;;4945296;29;20031;-84
2023/10/01 06:55:47;;;;;;;19.67;10.13;;;10.90;99.90;;;;;;4943787;28;20137;-85
2023/10/01 06:58:13;;;;;;;23.25;10.75;;;11.10;99.90;;;;;;4948428;29;20406;-84
2023/10/01 07:00:41;;;;;;;20.35;10.40;;;11.20;99.90;;;;;;4951207;29;20023;-84
2023/10/01 07:03:21;;;;;;;22.02;10.52;;;11.30;99.90;;;;;;4950240;29;20039;-84
2023/10/01 07:05:51;;;;;;;24.88;10.98;;;11.50;99.90;;;;;;4942201;29;20027;-84
2023/10/01 07:08:18;;;;;;;22.52;10.23;;;11.60;99.90;;;;;;4943192;29;20046;-84
2023/10/01 07:10:50;;;;;;;20.08;10.18;;;11.80;99.90;;;;;;4941511;29;20027;-84
2023/10/01 07:13:16;;;;;;;20.75;10.75;;;11.90;99.90;;;;;;4943583;29;20019;-84
2023/10/01 07:15:46;;;;;;;20.17;10.13;;;12.10;99.90;;;;;;4944421;28;20086;-83
2023/10/01 07:18:15;;;;;;;20.52;10.25;;;12.20;99.90;;;;;;4943261;29;20225;-84
2023/10/01 07:20:44;;;;;;;22.55;10.98;;;12.40;99.90;;;;;;4925330;29;20039;-85
2023/10/01 07:23:13;;;;;;;23.65;10.45;;;12.60;99.90;;;;;;4943025;29;20027;-85
2023/10/01 07:25:42;;;;;;;21.95;10.68;;;12.80;99.90;;;;;;4941753;29;20521;-84
2023/10/01 07:28:18;;;;;;;23.40;10.15;;;12.90;99.90;;;;;;4943168;29;20023;-85
2023/10/01 07:30:45;;;;;;;21.25;10.52;;;13.10;99.90;;;;;;4942880;29;20116;-85
2023/10/01 07:33:17;;;;;;;25.33;11.18;;;13.20;99.90;;;;;;4942556;29;20042;-85
2023/10/01 07:35:44;;;;;;;20.75;10.52;;;13.40;99.90;;;;;;4942305;29;20035;-85
2023/10/01 07:38:13;;;;;;;20.13;9.82;;;13.60;99.90;;;;;;4944448;29;20109;-86
2023/10/01 07:40:57;;;;;;;24.55;10.90;;;13.80;99.90;;;;;;4942606;29;20035;-85
2023/10/01 07:43:24;;;;;;;25.05;10.98;;;13.90;99.90;;;;;;4939900;28;20884;-85
2023/10/01 07:45:57;;;;;;;25.95;10.13;;;14.10;99.90;;;;;;4940281;28;20375;-86
2023/10/01 07:48:24;;;;;;;24.48;10.98;;;14.30;99.90;;;;;;4939962;28;20912;-85
2023/10/01 07:50:53;;;;;;;23.55;11.60;;;14.50;99.90;;;;;;4939545;28;20040;-86
2023/10/01 07:53:18;;;;;;;23.70;10.60;;;14.60;99.90;;;;;;4941081;29;20714;-85
2023/10/01 07:55:47;;;;;;;25.25;11.88;;;14.80;99.90;;;;;;4941260;28;20035;-86
2023/10/01 07:58:25;;;;;;;21.90;10.23;;;15.00;99.90;;;;;;4941356;29;20035;-86
2023/10/01 08:00:59;;;;;;;24.98;10.57;;;15.10;99.90;;;;;;4939963;29;20513;-85
2023/10/01 08:06:09;;;;;;;28.38;11.70;;;15.40;99.90;;;;;;4934383;28;20161;-85
2023/10/01 08:08:37;;;;;;;24.30;10.80;;;15.60;99.90;;;;;;4934193;29;20046;-86
2023/10/01 08:11:03;;;;;;;21.83;10.75;;;15.80;99.90;;;;;;4935733;29;20058;-87
2023/10/01 08:13:30;;;;;;;27.23;11.48;;;15.90;99.90;;;;;;4934951;29;20061;-85
2023/10/01 08:16:02;;;;;;;26.17;11.20;;;16.10;99.90;;;;;;4933883;29;20051;-86
2023/10/01 08:18:34;;;;;;;23.80;11.05;;;16.20;99.90;;;;;;4931223;29;20185;-86
2023/10/01 08:21:15;;;;;;;23.38;10.18;;;16.30;99.90;;;;;;4937223;29;20042;-86
2023/10/01 08:23:48;;;;;;;25.33;10.55;;;16.50;99.90;;;;;;4934002;29;20065;-85
2023/10/01 08:28:59;;;;;;;25.50;10.70;;;16.90;99.90;;;;;;4934312;29;20030;-86
2023/10/01 08:34:27;;;;;;;24.77;11.30;;;17.20;99.90;;;;;;4936069;29;21279;-86
2023/10/01 08:36:54;;;;;;;22.40;10.40;;;17.30;99.90;;;;;;4934867;29;20043;-86
2023/10/01 08:39:33;;;;;;;20.75;9.43;;;17.50;99.90;;;;;;4935671;29;20035;-87
2023/10/01 08:42:08;;;;;;;23.08;11.07;;;17.60;99.90;;;;;;4936808;29;20425;-86
2023/10/01 08:44:48;;;;;;;24.33;11.10;;;17.70;99.90;;;;;;4936024;28;21511;-86
2023/10/01 08:47:21;;;;;;;24.20;11.05;;;18.00;99.90;;;;;;4934929;29;20061;-87
2023/10/01 08:49:51;;;;;;;24.90;11.57;;;18.10;99.90;;;;;;4935554;29;21115;-86
2023/10/01 08:52:25;;;;;;;23.75;11.48;;;18.20;99.90;;;;;;4935479;29;20038;-87
2023/10/01 08:54:53;;;;;;;23.25;11.38;;;18.30;99.90;;;;;;4934402;28;20031;-86
2023/10/01 08:57:36;;;;;;;21.05;9.85;;;18.40;99.90;;;;;;4937715;29;20502;-87
2023/10/01 09:00:14;;;;;;;23.20;10.40;;;18.50;99.90;;;;;;4940099;29;20031;-86
2023/10/01 09:02:39;;;;;;;23.30;10.35;;;18.80;99.90;;;;;;4939980;29;20599;-87
2023/10/01 09:05:08;;;;;;;25.10;10.85;;;19.00;99.90;;;;;;4937952;28;20027;-87
2023/10/01 09:07:47;;;;;;;20.77;10.40;;;19.10;99.90;;;;;;4939711;29;20043;-86
2023/10/01 09:10:17;;;;;;;22.65;10.57;;;19.40;99.90;;;;;;4940900;29;20126;-86
2023/10/01 09:12:47;;;;;;;23.33;10.50;;;19.60;99.90;;;;;;4945086;29;20057;-86
2023/10/01 09:15:27;;;;;;;23.15;10.30;;;19.70;99.90;;;;;;4948684;28;20117;-87
2023/10/01 09:17:57;;;;;;;24.55;10.90;;;19.80;99.90;;;;;;4947871;29;20054;-89
2023/10/01 09:20:38;;;;;;;22.50;10.52;;;19.90;99.90;;;;;;4939105;29;21390;-87
2023/10/01 09:23:05;;;;;;;22.17;10.48;;;20.00;99.90;;;;;;4940687;29;20097;-87
2023/10/01 09:25:34;;;;;;;22.80;10.77;;;20.00;99.90;;;;;;4939364;28;20267;-86
2023/10/01 09:33:49;;;;;;;22.38;10.55;;;20.40;99.90;;;;;;4941934;29;20048;-86
2023/10/01 09:36:36;;;;;;;23.15;10.75;;;20.50;99.90;;;;;;4939862;28;20028;-87
2023/10/01 09:39:06;;;;;;;21.63;10.68;;;20.60;99.90;;;;;;4943296;29;20513;-86
2023/10/01 09:41:35;;;;;;;23.48;11.35;;;20.90;99.90;;;;;;4950619;29;20035;-87
2023/10/01 09:44:03;;;;;;;23.48;12.05;;;21.00;99.90;;;;;;4952016;29;20034;-86
2023/10/01 09:46:33;;;;;;;21.45;11.05;;;21.10;99.90;;;;;;4947698;28;20102;-86
2023/10/01 09:49:02;;;;;;;21.95;10.25;;;21.10;99.90;;;;;;4945192;29;20165;-83
2023/10/01 09:51:31;;;;;;;23.00;11.32;;;21.30;99.90;;;;;;4950420;29;20023;-82
2023/10/01 09:54:01;;;;;;;23.23;10.65;;;21.30;99.90;;;;;;4946460;29;20035;-81
2023/10/01 09:56:29;;;;;;;22.60;10.32;;;21.40;99.90;;;;;;4950011;29;20066;-80
2023/10/01 09:59:11;;;;;;;23.98;11.38;;;21.40;99.90;;;;;;4947146;29;20032;-81
2023/10/01 10:01:38;;;;;;;24.98;11.65;;;21.60;99.90;;;;;;4946848;29;20047;-80
2023/10/01 10:04:06;;;;;;;21.77;11.38;;;21.60;99.90;;;;;;4947127;29;20027;-81
2023/10/01 10:06:33;;;;;;;22.55;11.30;;;21.70;99.90;;;;;;4948201;28;20031;-79
2023/10/01 10:09:04;;;;;;;22.88;10.95;;;21.80;99.90;;;;;;4946096;29;20057;-80
2023/10/01 10:11:43;;;;;;;21.25;10.85;;;21.80;99.90;;;;;;4948317;29;20038;-83
2023/10/01 10:14:27;;;;;;;24.58;11.68;;;22.00;99.90;;;;;;4946196;29;20031;-78
2023/10/01 10:17:18;;;;;;;21.38;10.52;;;22.10;99.90;;;;;;4946955;29;20091;-79
2023/10/01 10:20:16;;;;;;;20.65;10.80;;;22.00;99.90;;;;;;4947814;29;20081;-80
2023/10/01 10:23:13;;;;;;;22.98;11.13;;;21.90;99.90;;;;;;4945581;29;20073;-80
2023/10/01 10:25:45;;;;;;;22.25;10.38;;;22.00;99.90;;;;;;4944811;28;20027;-78
2023/10/01 10:28:24;;;;;;;20.00;10.63;;;22.00;99.90;;;;;;4945590;29;20692;-79
2023/10/01 10:31:32;;;;;;;21.80;10.68;;;22.20;99.90;;;;;;4945502;29;20042;-80
2023/10/01 10:34:29;;;;;;;21.80;10.82;;;22.30;99.90;;;;;;4943648;29;20059;-82
2023/10/01 10:36:55;;;;;;;22.52;11.15;;;22.30;99.90;;;;;;4945417;29;20067;-79
2023/10/01 10:39:45;;;;;;;27.55;11.98;;;22.50;99.90;;;;;;4945869;29;20034;-81
2023/10/01 10:42:29;;;;;;;20.80;10.75;;;22.80;99.90;;;;;;4943075;29;20097;-81
2023/10/01 10:45:20;;;;;;;19.02;9.77;;;23.10;99.90;;;;;;4941977;28;20034;-91
2023/10/01 10:48:03;;;;;;;23.58;11.35;;;23.00;99.90;;;;;;4942876;29;20019;-91
2023/10/01 10:50:48;;;;;;;20.52;10.88;;;23.20;99.90;;;;;;4942575;29;20078;-91
2023/10/01 10:53:21;;;;;;;21.23;10.98;;;23.20;99.90;;;;;;4927103;29;20070;-91
2023/10/01 10:56:09;;;;;;;21.05;11.13;;;23.40;99.90;;;;;;4941338;29;20042;-92
2023/10/01 10:58:39;;;;;;;22.58;11.80;;;23.50;99.90;;;;;;4941490;29;20066;-91
2023/10/01 11:01:15;;;;;;;22.88;11.75;;;23.50;99.90;;;;;;4942053;29;20027;-92
2023/10/01 11:03:47;;;;;;;21.92;11.95;;;23.50;99.90;;;;;;4941965;29;20070;-91
2023/10/01 11:06:18;;;;;;;22.30;11.00;;;23.60;99.90;;;;;;4942285;28;20023;-91
2023/10/01 11:08:51;;;;;;;22.33;10.77;;;23.50;99.90;;;;;;4943268;29;20067;-92
2023/10/01 11:11:30;;;;;;;19.90;10.27;;;23.50;99.90;;;;;;4944430;29;20442;-91
2023/10/01 11:14:02;;;;;;;22.33;10.32;;;23.90;99.90;;;;;;4943277;29;20522;-92
2023/10/01 11:16:38;;;;;;;21.88;10.70;;;23.80;99.90;;;;;;4942397;29;20047;-93
2023/10/01 11:19:12;;;;;;;24.30;11.15;;;23.70;99.90;;;;;;4942351;28;20153;-91
2023/10/01 11:22:00;;;;;;;21.70;10.52;;;23.90;99.90;;;;;;4941386;29;20482;-91
2023/10/01 11:24:33;;;;;;;20.73;10.27;;;24.00;99.90;;;;;;4941963;28;20130;-91
2023/10/01 11:27:25;;;;;;;23.10;11.63;;;24.20;99.90;;;;;;4941535;29;20130;-92
2023/10/01 11:30:13;;;;;;;21.70;11.00;;;24.20;99.90;;;;;;4940233;29;20038;-90
2023/10/01 11:35:33;;;;;;;22.42;10.55;;;24.00;99.90;;;;;;4941996;29;20027;-92
2023/10/01 11:38:19;;;;;;;22.95;11.05;;;24.10;99.90;;;;;;4941215;29;20053;-91
2023/10/01 11:44:06;;;;;;;21.08;11.07;;;24.00;99.90;;;;;;4942179;29;20501;-91
2023/10/01 11:46:57;;;;;;;21.88;10.93;;;23.90;99.90;;;;;;4940220;28;20037;-93
2023/10/01 11:49:32;;;;;;;21.00;11.02;;;23.90;99.90;;;;;;4941222;29;20191;-92
2023/10/01 11:52:05;;;;;;;22.13;10.45;;;24.10;99.90;;;;;;4940527;29;20043;-91
2023/10/01 11:54:43;;;;;;;22.25;10.63;;;24.10;99.90;;;;;;4939862;28;20469;-91
2023/10/01 11:57:22;;;;;;;18.77;10.18;;;24.10;99.90;;;;;;4941724;29;20038;-91
2023/10/01 11:59:56;;;;;;;20.90;10.70;;;24.20;99.90;;;;;;4946583;29;20032;-91
2023/10/01 12:02:26;;;;;;;21.25;10.40;;;24.10;99.90;;;;;;4940165;29;20039;-91
2023/10/01 12:04:59;;;;;;;22.48;11.65;;;24.10;99.90;;;;;;4940726;28;21421;-91
2023/10/01 12:07:43;;;;;;;22.15;11.23;;;24.10;99.90;;;;;;4944832;29;20135;-90
2023/10/01 12:12:55;;;;;;;21.38;11.23;;;24.30;99.90;;;;;;4941038;29;20310;-91
2023/10/01 12:18:14;;;;;;;22.10;10.18;;;24.60;99.90;;;;;;4939966;29;20177;-92
2023/10/01 12:20:54;;;;;;;;;;;24.60;99.90;;;;;;4940405;29;20834;-91
2023/10/01 12:23:22;;;;;;;18.80;9.68;;;24.70;99.90;;;;;;4940964;29;19920;-91
2023/10/01 12:28:28;;;;;;;20.95;10.45;;;24.90;99.90;;;;;;4941523;29;20443;-90
2023/10/01 12:30:58;;;;;;;21.02;10.57;;;25.00;99.90;;;;;;4941524;28;20043;-91
2023/10/01 12:33:38;;;;;;;19.02;10.05;;;24.90;99.90;;;;;;4944239;29;20024;-91
2023/10/01 12:36:11;;;;;;;21.23;10.63;;;24.90;99.90;;;;;;4943612;28;20031;-91
2023/10/01 12:38:37;;;;;;;19.00;10.38;;;24.80;99.90;;;;;;4944484;29;20038;-91
2023/10/01 12:41:03;;;;;;;19.35;10.30;;;24.70;99.90;;;;;;4962468;29;20043;-91
2023/10/01 12:43:37;;;;;;;17.30;9.85;;;24.80;99.90;;;;;;4969467;29;20019;-93
2023/10/01 12:46:10;;;;;;;20.02;10.55;;;24.70;99.90;;;;;;4965940;28;20029;-93
2023/10/01 12:49:14;;;;;;;22.02;10.70;;;24.80;99.90;;;;;;4947477;29;20067;-91
2023/10/01 12:51:41;;;;;;;19.92;10.30;;;25.00;99.90;;;;;;4943074;29;20126;-91
2023/10/01 12:54:06;;;;;;;18.83;9.48;;;24.90;99.90;;;;;;4943099;29;20106;-92
2023/10/01 12:57:18;;;;;;;19.20;10.52;;;24.80;99.90;;;;;;4943627;28;20089;-91
2023/10/01 12:59:20;;;;;;;20.08;9.88;;;24.90;99.90;;;;;;4936064;29;20110;-91
2023/10/01 13:01:53;;;;;;;18.92;10.10;;;24.80;99.90;;;;;;4940608;28;20046;-92
2023/10/01 13:04:23;;;;;;;21.13;10.02;;;24.70;99.90;;;;;;4943438;28;20730;-92
2023/10/01 13:07:00;;;;;;;17.73;9.82;;;24.80;99.90;;;;;;4948446;29;20031;-91
2023/10/01 13:12:14;;;;;;;18.63;9.88;;;24.80;99.90;;;;;;4951713;29;20075;-92
2023/10/01 13:15:14;;;;;;;19.83;10.52;;;24.70;99.90;;;;;;4942213;28;20031;-90
2023/10/01 13:17:43;;;;;;;17.73;9.80;;;24.60;99.90;;;;;;4946409;29;20254;-82
2023/10/01 13:20:28;;;;;;;21.63;9.75;;;24.40;99.90;;;;;;4946201;29;20100;-84
2023/10/01 13:23:06;;;;;;;18.92;9.90;;;24.30;99.90;;;;;;4942340;29;20846;-86
2023/10/01 13:25:33;;;;;;;16.85;8.77;;;24.30;99.90;;;;;;4946038;29;20074;-80
2023/10/01 13:28:04;;;;;;;17.48;8.90;;;24.30;99.90;;;;;;4948631;29;20043;-80
2023/10/01 13:31:03;;;;;;;17.83;9.88;;;24.30;99.90;;;;;;4947522;29;20040;-81
2023/10/01 13:36:23;;;;;;;20.98;9.80;;;24.10;99.90;;;;;;4946528;29;20054;-80
2023/10/01 13:39:14;;;;;;;20.10;10.13;;;24.30;99.90;;;;;;4945930;29;20049;-80
2023/10/01 14:08:47;;;;;;;17.95;9.30;;;24.00;99.90;;;;;;4943536;29;20061;-78
2023/10/01 14:11:26;;;;;;;19.60;9.95;;;23.90;99.90;;;;;;4942651;29;20031;-79
2023/10/01 14:13:52;;;;;;;15.07;8.35;;;23.90;99.90;;;;;;4941942;29;20031;-78
2023/10/01 14:16:22;;;;;;;17.55;8.98;;;23.80;99.90;;;;;;4943553;29;20035;-78
2023/10/01 14:18:55;;;;;;;24.02;10.45;;;23.80;99.90;;;;;;4941550;29;20079;-78
2023/10/01 14:21:24;;;;;;;17.13;8.93;;;23.70;99.90;;;;;;4942330;29;20027;-78